createdAt,value
2022-10-19T00:01:53.482Z,8.31
2022-10-19T00:04:25.185Z,8.30
2022-10-19T00:06:51.928Z,8.29
2022-10-19T00:09:19.223Z,8.29
2022-10-19T00:11:49.785Z,8.27
2022-10-19T00:14:24.068Z,8.26
2022-10-19T00:17:09.565Z,8.24
2022-10-19T00:19:36.344Z,8.23
2022-10-19T00:22:03.196Z,8.22
2022-10-19T00:24:29.927Z,8.20
2022-10-19T00:26:59.872Z,8.18
2022-10-19T00:29:37.173Z,8.17
2022-10-19T00:32:13.323Z,8.16
2022-10-19T00:34:43.857Z,8.16
2022-10-19T00:37:12.918Z,8.14
2022-10-19T00:39:43.765Z,8.13
2022-10-19T00:42:11.883Z,8.12
2022-10-19T00:44:38.612Z,8.11
2022-10-19T00:47:07.826Z,8.11
2022-10-19T00:49:39.649Z,8.10
2022-10-19T00:52:33.868Z,8.10
2022-10-19T00:55:02.042Z,8.09
2022-10-19T00:57:36.192Z,8.08
2022-10-19T01:00:06.544Z,8.07
2022-10-19T01:02:36.710Z,8.06
2022-10-19T01:05:08.087Z,8.04
2022-10-19T01:07:35.171Z,8.01
2022-10-19T01:10:17.247Z,7.99
2022-10-19T01:13:38.559Z,7.96
2022-10-19T01:16:27.030Z,7.95
2022-10-19T01:19:30.287Z,7.94
2022-10-19T01:22:52.271Z,7.91
2022-10-19T01:27:55.859Z,7.89
2022-10-19T01:30:38.757Z,7.87
2022-10-19T01:34:14.340Z,7.87
2022-10-19T01:37:35.197Z,7.86
2022-10-19T01:40:12.632Z,7.85
2022-10-19T01:43:12.567Z,7.85
2022-10-19T01:46:08.449Z,7.85
2022-10-19T01:49:13.904Z,7.85
2022-10-19T01:51:53.778Z,7.85
2022-10-19T01:54:26.977Z,7.87
2022-10-19T01:57:21.522Z,7.87
2022-10-19T02:00:06.955Z,7.88
2022-10-19T02:03:31.738Z,7.89
2022-10-19T02:06:15.906Z,7.90
2022-10-19T02:08:52.308Z,7.91
2022-10-19T02:11:25.835Z,7.92
2022-10-19T02:15:16.434Z,7.92
2022-10-19T02:17:56.509Z,7.93
2022-10-19T02:21:08.204Z,7.93
2022-10-19T02:23:48.344Z,7.94
2022-10-19T02:27:12.986Z,7.95
2022-10-19T02:29:41.653Z,7.97
2022-10-19T02:32:12.980Z,8.00
2022-10-19T02:34:41.614Z,8.03
2022-10-19T02:37:15.982Z,8.06
2022-10-19T02:39:48.465Z,8.08
2022-10-19T02:42:42.138Z,8.08
2022-10-19T02:45:14.885Z,8.07
2022-10-19T02:47:55.386Z,8.05
2022-10-19T02:50:34.073Z,8.02
2022-10-19T02:53:11.642Z,7.98
2022-10-19T02:55:46.909Z,7.92
2022-10-19T02:58:13.621Z,7.88
2022-10-19T03:00:48.193Z,7.84
2022-10-19T03:03:17.352Z,7.83
2022-10-19T03:05:44.113Z,7.80
2022-10-19T03:08:33.772Z,7.77
2022-10-19T03:11:09.267Z,7.75
2022-10-19T03:13:36.219Z,7.74
2022-10-19T03:16:26.183Z,7.72
2022-10-19T03:20:39.281Z,7.71
2022-10-19T03:22:12.495Z,7.69
2022-10-19T03:24:46.197Z,7.67
2022-10-19T03:27:33.119Z,7.66
2022-10-19T03:30:01.787Z,7.65
2022-10-19T03:32:31.465Z,7.66
2022-10-19T03:35:01.484Z,7.66
2022-10-19T03:37:32.656Z,7.66
2022-10-19T03:39:59.854Z,7.68
2022-10-19T03:42:31.431Z,7.68
2022-10-19T03:45:13.076Z,7.67
2022-10-19T03:52:15.744Z,7.66
2022-10-19T03:56:41.956Z,7.66
2022-10-19T04:01:49.783Z,7.67
2022-10-19T04:04:26.376Z,7.68
2022-10-19T04:06:55.015Z,7.68
2022-10-19T04:09:34.758Z,7.67
2022-10-19T04:12:04.783Z,7.67
2022-10-19T04:14:33.187Z,7.64
2022-10-19T04:17:06.444Z,7.61
2022-10-19T04:19:34.394Z,7.58
2022-10-19T04:22:08.241Z,7.55
2022-10-19T04:24:37.627Z,7.51
2022-10-19T04:27:06.613Z,7.49
2022-10-19T04:29:33.243Z,7.49
2022-10-19T04:32:00.193Z,7.48
2022-10-19T04:34:27.377Z,7.47
2022-10-19T04:36:54.745Z,7.46
2022-10-19T04:39:45.826Z,7.46
2022-10-19T04:46:25.783Z,7.41
2022-10-19T04:52:29.889Z,7.38
2022-10-19T04:55:15.146Z,7.36
2022-10-19T04:57:56.591Z,7.37
2022-10-19T05:05:35.076Z,7.36
2022-10-19T05:09:42.172Z,7.37
2022-10-19T05:20:40.967Z,7.48
2022-10-19T05:23:35.651Z,7.56
2022-10-19T05:26:28.502Z,7.63
2022-10-19T05:33:06.778Z,7.81
2022-10-19T05:35:38.339Z,7.87
2022-10-19T05:38:05.183Z,7.92
2022-10-19T05:40:31.851Z,7.97
2022-10-19T05:42:58.413Z,8.01
2022-10-19T05:45:25.007Z,8.07
2022-10-19T05:47:51.586Z,8.12
2022-10-19T05:50:18.227Z,8.17
2022-10-19T05:52:44.839Z,8.23
2022-10-19T05:55:11.501Z,8.30
2022-10-19T05:57:38.573Z,8.38
2022-10-19T06:00:05.556Z,8.49
2022-10-19T06:02:40.184Z,8.61
2022-10-19T06:05:17.917Z,8.72
2022-10-19T06:07:48.563Z,8.80
2022-10-19T06:10:18.620Z,8.90
2022-10-19T06:12:56.723Z,9.00
2022-10-19T06:15:46.263Z,9.12
2022-10-19T06:18:13.793Z,9.22
2022-10-19T06:20:46.285Z,9.32
2022-10-19T06:23:23.102Z,9.41
2022-10-19T06:25:58.750Z,9.47
2022-10-19T06:28:34.596Z,9.53
2022-10-19T06:32:01.117Z,9.60
2022-10-19T06:34:31.115Z,9.68
2022-10-19T06:37:02.205Z,9.76
2022-10-19T06:39:47.181Z,9.83
2022-10-19T06:42:14.238Z,9.91
2022-10-19T06:44:46.565Z,9.96
2022-10-19T06:50:44.835Z,10.13
2022-10-19T06:53:23.869Z,10.22
2022-10-19T06:56:26.881Z,10.33
2022-10-19T06:58:54.853Z,10.41
2022-10-19T07:01:36.441Z,10.48
2022-10-19T07:08:44.976Z,10.56
2022-10-19T07:25:18.358Z,10.84
2022-10-19T07:26:30.588Z,10.83
2022-10-19T07:48:32.686Z,11.23
2022-10-19T07:55:55.074Z,11.65
2022-10-19T08:37:44.130Z,12.77
2022-10-19T08:49:11.706Z,13.22
2022-10-19T09:06:56.695Z,13.35
2022-10-19T09:10:28.846Z,13.38
2022-10-19T09:17:37.002Z,13.51
2022-10-19T09:25:30.655Z,13.71
2022-10-19T09:29:24.110Z,13.93
2022-10-19T09:45:37.435Z,15.75
2022-10-19T09:49:13.715Z,15.89
2022-10-19T09:51:58.098Z,15.94
2022-10-19T10:09:02.718Z,15.50
2022-10-19T10:11:43.858Z,15.59
2022-10-19T10:14:32.942Z,15.69
2022-10-19T11:31:17.356Z,16.67
2022-10-19T11:51:21.896Z,16.89
2022-10-19T12:04:30.057Z,16.62
2022-10-19T12:08:15.289Z,16.69
2022-10-19T12:28:09.734Z,17.34
2022-10-19T12:35:21.234Z,17.44
2022-10-19T12:43:23.915Z,17.17
2022-10-19T12:46:20.276Z,17.08
2022-10-19T12:49:36.429Z,17.07
2022-10-19T12:52:39.621Z,17.09
2022-10-19T12:55:18.289Z,17.04
2022-10-19T12:57:56.026Z,16.97
2022-10-19T13:00:37.843Z,17.02
2022-10-19T13:03:15.657Z,17.14
2022-10-19T13:11:06.165Z,17.37
2022-10-19T13:13:55.238Z,17.37
2022-10-19T13:17:33.990Z,17.32
2022-10-19T13:20:38.410Z,17.28
2022-10-19T13:23:06.908Z,17.28
2022-10-19T13:25:53.599Z,17.32
2022-10-19T13:35:22.841Z,17.24
2022-10-19T14:21:29.757Z,16.91
2022-10-19T14:24:30.657Z,16.90
2022-10-19T14:27:07.222Z,16.84
2022-10-19T14:31:30.652Z,16.75
2022-10-19T14:33:02.856Z,16.65
2022-10-19T14:35:51.121Z,16.56
2022-10-19T14:38:38.705Z,16.48
2022-10-19T14:48:08.200Z,16.19
2022-10-19T14:50:44.670Z,16.12
2022-10-19T14:53:30.548Z,16.05
2022-10-19T14:57:00.488Z,15.98
2022-10-19T14:59:32.717Z,15.90
2022-10-19T15:02:40.063Z,15.80
2022-10-19T15:05:27.290Z,15.69
2022-10-19T15:07:56.762Z,15.58
2022-10-19T15:10:39.726Z,15.49
2022-10-19T15:13:29.799Z,15.42
2022-10-19T15:16:03.486Z,15.36
2022-10-19T15:18:53.335Z,15.29
2022-10-19T15:21:24.403Z,15.21
2022-10-19T15:24:07.123Z,15.14
2022-10-19T15:27:43.201Z,15.03
2022-10-19T15:30:37.521Z,14.91
2022-10-19T15:33:55.149Z,14.83
2022-10-19T15:36:57.769Z,14.76
2022-10-19T15:39:45.643Z,14.72
2022-10-19T15:42:57.859Z,14.68
2022-10-19T15:46:30.570Z,14.64
2022-10-19T15:49:59.644Z,14.63
2022-10-19T15:53:48.793Z,14.61
2022-10-19T15:56:32.632Z,14.58
2022-10-19T16:02:54.193Z,14.52
2022-10-19T16:06:03.848Z,14.50
2022-10-19T16:09:00.385Z,14.48
2022-10-19T16:12:24.171Z,14.46
2022-10-19T16:14:36.696Z,14.42
2022-10-19T17:42:45.736Z,13.97
2022-10-19T17:45:23.450Z,13.94
2022-10-19T17:53:53.291Z,13.82
2022-10-19T18:01:03.784Z,13.73
2022-10-19T18:12:37.353Z,13.66
2022-10-19T18:15:27.294Z,13.61
2022-10-19T18:24:54.735Z,13.43
2022-10-19T18:27:34.983Z,13.37
2022-10-19T18:30:08.751Z,13.31
2022-10-19T18:35:56.305Z,13.23
2022-10-19T18:39:07.216Z,13.17
2022-10-19T18:42:42.824Z,13.13
2022-10-19T18:45:39.830Z,13.09
2022-10-19T18:48:12.271Z,13.07
2022-10-19T18:50:47.625Z,13.05
2022-10-19T18:53:20.453Z,13.02
2022-10-19T18:56:26.420Z,13.00
2022-10-19T18:59:47.001Z,12.95
2022-10-19T19:02:22.366Z,12.94
2022-10-19T19:04:55.956Z,12.92
2022-10-19T19:07:38.906Z,12.91
2022-10-19T19:10:08.784Z,12.89
2022-10-19T19:13:19.506Z,12.88
2022-10-19T19:16:24.824Z,12.85
2022-10-19T19:19:06.856Z,12.84
2022-10-19T19:22:52.514Z,12.83
2022-10-19T19:25:33.647Z,12.80
2022-10-19T19:28:10.069Z,12.77
2022-10-19T19:30:45.354Z,12.74
2022-10-19T19:34:05.685Z,12.72
2022-10-19T19:40:31.525Z,12.63
2022-10-19T19:43:00.322Z,12.61
2022-10-19T19:45:30.394Z,12.59
2022-10-19T19:49:14.977Z,12.54
2022-10-19T19:52:19.061Z,12.51
2022-10-19T19:55:42.838Z,12.48
2022-10-19T19:58:19.969Z,12.45
2022-10-19T20:00:48.595Z,12.41
2022-10-19T20:04:16.516Z,12.37
2022-10-19T20:06:44.440Z,12.30
2022-10-19T20:09:44.853Z,12.25
2022-10-19T20:16:40.424Z,12.15
2022-10-19T20:19:57.339Z,12.09
2022-10-19T20:22:57.159Z,12.04
2022-10-19T20:32:31.583Z,11.98
2022-10-19T20:35:22.655Z,11.96
2022-10-19T20:38:40.016Z,11.93
2022-10-19T20:41:09.394Z,11.91
2022-10-19T20:45:35.241Z,11.88
2022-10-19T20:47:06.847Z,11.87
2022-10-19T20:49:49.742Z,11.87
2022-10-19T20:52:20.851Z,11.88
2022-10-19T20:54:50.885Z,11.87
2022-10-19T20:57:42.450Z,11.87
2022-10-19T21:00:39.597Z,11.84
2022-10-19T21:03:14.476Z,11.85
2022-10-19T21:05:51.118Z,11.85
2022-10-19T21:08:41.681Z,11.85
2022-10-19T21:11:57.707Z,11.82
2022-10-19T21:18:07.798Z,11.78
2022-10-19T21:24:38.179Z,11.76
2022-10-19T21:27:29.389Z,11.74
2022-10-19T21:30:20.598Z,11.70
